Terminal Aerodrome Forecast
Issued by NWS Louisville, KY

Home | Current Version | Previous Version | Text Only | Print | Product List | Glossary On
Versions: 1 2 3 4 5 6 7 8 9 10 11 12 13 14 15 16
000
FTUS43 KLMK 281100
TAFBWG
TAF
KBWG 281126Z 2812/2912 00000KT 5SM BR FEW003 BKN100
      TEMPO 2812/2813 2SM BR BKN003
     FM281300 13007KT P6SM VCSH SCT008 BKN040
      TEMPO 2813/2815 BKN008
     FM281500 13005KT P6SM VCTS SCT015CB BKN030
     FM282200 16006KT P6SM BKN040
     FM290900 13003KT 4SM BR BKN050=

USA.gov is the U.S. government's official web portal to all federal, state and local government web resources and services.